Time;durP1;ratioP1;P1;durP2;ratioP2;P2;SDS_P1;SDS_P2;PMS_P1;PMS_P2;Temp;Humidity;BMP_temperature;BMP_pressure;BME280_temperature;BME280_humidity;BME280_pressure;Samples;Min_cycle;Max_cycle;Signal;HPM_P1;HPM_P2
2022/06/16 00:00:35;;;;;;;3.50;2.40;;;;;;;;;;5048647;28;20761;-67
2022/06/16 00:03:03;;;;;;;5.27;2.57;;;;;;;;;;5040345;28;20210;-68
2022/06/16 00:05:34;;;;;;;2.90;2.07;;;;;;;;;;5046387;28;20202;-67
2022/06/16 00:08:05;;;;;;;2.23;2.03;;;;;;;;;;5043906;28;20272;-67
2022/06/16 00:10:33;;;;;;;3.63;2.37;;;;;;;;;;5046078;28;20190;-67
2022/06/16 00:13:00;;;;;;;3.83;2.40;;;;;;;;;;5046141;28;20243;-67
2022/06/16 00:15:28;;;;;;;2.67;2.30;;;;;;;;;;5042986;28;20651;-66
2022/06/16 00:17:56;;;;;;;4.23;2.77;;;;;;;;;;5043550;28;20202;-66
2022/06/16 00:20:24;;;;;;;3.10;2.50;;;;;;;;;;5046579;28;20211;-66
2022/06/16 00:22:51;;;;;;;2.77;2.50;;;;;;;;;;5045609;28;20197;-66
2022/06/16 00:25:18;;;;;;;3.80;2.50;;;;;;;;;;5046539;28;20198;-66
2022/06/16 00:27:46;;;;;;;2.57;2.13;;;;;;;;;;5043613;28;20299;-66
2022/06/16 00:30:13;;;;;;;3.97;2.30;;;;;;;;;;5042188;28;20201;-66
2022/06/16 00:32:41;;;;;;;3.50;2.43;;;;;;;;;;5039888;28;20205;-66
2022/06/16 00:35:09;;;;;;;2.40;2.07;;;;;;;;;;5045735;28;20248;-66
2022/06/16 00:37:36;;;;;;;3.27;2.40;;;;;;;;;;5046209;28;20238;-66
2022/06/16 00:40:04;;;;;;;2.90;2.20;;;;;;;;;;5040163;28;20765;-67
2022/06/16 00:42:31;;;;;;;3.17;2.40;;;;;;;;;;5044001;28;20241;-67
2022/06/16 00:44:58;;;;;;;3.40;2.47;;;;;;;;;;5046425;28;20621;-67
2022/06/16 00:47:27;;;;;;;3.20;2.23;;;;;;;;;;5045905;28;20237;-67
2022/06/16 00:49:57;;;;;;;2.40;2.20;;;;;;;;;;5046250;28;20194;-67
2022/06/16 00:52:30;;;;;;;3.13;2.17;;;;;;;;;;5048202;28;20892;-67
2022/06/16 00:55:09;;;;;;;4.30;2.10;;;;;;;;;;5044013;28;20194;-67
2022/06/16 00:57:39;;;;;;;3.73;2.30;;;;;;;;;;5043377;28;20219;-67
2022/06/16 01:00:13;;;;;;;3.07;2.30;;;;;;;;;;5038195;28;20198;-67
2022/06/16 01:02:40;;;;;;;3.90;2.60;;;;;;;;;;5047166;28;20233;-67
2022/06/16 01:05:08;;;;;;;3.53;2.33;;;;;;;;;;5049476;28;20199;-67
2022/06/16 01:07:39;;;;;;;2.60;2.17;;;;;;;;;;5049145;28;20214;-67
2022/06/16 01:10:06;;;;;;;2.80;2.37;;;;;;;;;;5040489;28;20203;-67
2022/06/16 01:15:36;;;;;;;5.03;2.53;;;;;;;;;;5046612;28;20198;-67
2022/06/16 01:18:25;;;;;;;3.87;2.70;;;;;;;;;;5039816;28;20194;-67
2022/06/16 01:21:03;;;;;;;2.23;2.03;;;;;;;;;;5048747;28;20215;-67
2022/06/16 01:23:31;;;;;;;2.60;2.03;;;;;;;;;;5030919;28;20198;-67
2022/06/16 01:26:17;;;;;;;2.80;2.10;;;;;;;;;;5042970;28;20203;-66
2022/06/16 01:28:47;;;;;;;3.23;2.30;;;;;;;;;;5024685;28;20554;-66
2022/06/16 01:31:21;;;;;;;3.03;2.27;;;;;;;;;;5045327;28;20202;-67
2022/06/16 01:33:54;;;;;;;2.57;2.10;;;;;;;;;;5047873;28;20201;-67
2022/06/16 01:36:22;;;;;;;3.17;2.10;;;;;;;;;;5044191;28;20238;-67
2022/06/16 01:38:52;;;;;;;3.53;2.50;;;;;;;;;;5043512;28;20207;-67
2022/06/16 01:41:19;;;;;;;3.13;2.43;;;;;;;;;;5045528;28;20194;-67
2022/06/16 01:43:59;;;;;;;2.47;2.27;;;;;;;;;;5047480;28;20202;-67
2022/06/16 01:46:30;;;;;;;2.80;2.10;;;;;;;;;;5043175;28;20226;-67
2022/06/16 01:49:20;;;;;;;5.23;2.57;;;;;;;;;;5047730;28;20198;-67
2022/06/16 01:51:53;;;;;;;2.80;2.30;;;;;;;;;;5032306;28;20567;-67
2022/06/16 01:54:20;;;;;;;2.73;2.33;;;;;;;;;;5040702;28;20199;-67
2022/06/16 01:57:01;;;;;;;2.97;2.40;;;;;;;;;;5050700;28;20195;-67
2022/06/16 01:59:32;;;;;;;3.30;2.20;;;;;;;;;;5047887;28;20198;-67
2022/06/16 02:02:01;;;;;;;3.43;2.10;;;;;;;;;;5044221;28;20608;-67
2022/06/16 02:04:36;;;;;;;3.13;2.30;;;;;;;;;;5045906;28;20214;-67
2022/06/16 02:07:06;;;;;;;3.33;2.43;;;;;;;;;;5048965;28;20234;-67
2022/06/16 02:09:37;;;;;;;3.13;2.30;;;;;;;;;;5044383;28;20201;-67
2022/06/16 02:12:06;;;;;;;4.27;2.03;;;;;;;;;;5043718;28;20197;-67
2022/06/16 02:14:34;;;;;;;3.53;2.27;;;;;;;;;;5043106;28;20203;-67
2022/06/16 02:17:01;;;;;;;3.90;2.60;;;;;;;;;;5045544;28;20225;-67
2022/06/16 02:19:29;;;;;;;3.27;2.20;;;;;;;;;;5039937;28;20194;-67
2022/06/16 02:21:57;;;;;;;2.80;2.07;;;;;;;;;;5041328;28;20237;-67
2022/06/16 02:24:27;;;;;;;3.90;2.40;;;;;;;;;;5042923;28;20197;-67
2022/06/16 02:26:55;;;;;;;4.33;2.27;;;;;;;;;;5045400;28;20230;-67
2022/06/16 02:29:23;;;;;;;3.27;2.30;;;;;;;;;;5038895;28;20213;-67
2022/06/16 02:31:58;;;;;;;4.03;2.20;;;;;;;;;;5040492;28;20248;-67
2022/06/16 02:34:29;;;;;;;2.77;2.40;;;;;;;;;;5040505;28;20202;-67
2022/06/16 02:37:10;;;;;;;2.93;2.43;;;;;;;;;;5046804;28;20223;-67
2022/06/16 02:39:40;;;;;;;3.80;2.50;;;;;;;;;;5039902;28;20213;-67
2022/06/16 02:42:18;;;;;;;3.03;2.33;;;;;;;;;;5043947;28;20562;-67
2022/06/16 02:45:00;;;;;;;3.30;2.37;;;;;;;;;;5046649;28;20222;-67
2022/06/16 02:47:54;;;;;;;4.07;2.43;;;;;;;;;;5046610;28;20218;-67
2022/06/16 02:50:21;;;;;;;2.93;2.30;;;;;;;;;;5035758;28;20213;-67
2022/06/16 02:52:51;;;;;;;3.73;2.30;;;;;;;;;;5042900;28;20190;-67
2022/06/16 02:55:31;;;;;;;3.80;2.70;;;;;;;;;;5047029;28;20198;-67
2022/06/16 02:58:00;;;;;;;3.93;2.40;;;;;;;;;;5040765;28;20205;-67
2022/06/16 03:00:35;;;;;;;4.57;2.57;;;;;;;;;;5045464;28;20233;-67
2022/06/16 03:03:20;;;;;;;3.43;2.17;;;;;;;;;;5042433;28;20210;-67
2022/06/16 03:05:52;;;;;;;2.73;2.47;;;;;;;;;;5046595;28;20251;-67
2022/06/16 03:08:20;;;;;;;3.23;2.53;;;;;;;;;;5041433;28;20202;-66
2022/06/16 03:10:51;;;;;;;2.63;2.23;;;;;;;;;;5025512;28;20209;-67
2022/06/16 03:13:19;;;;;;;2.93;2.23;;;;;;;;;;5045985;28;20197;-68
2022/06/16 03:15:48;;;;;;;4.07;2.23;;;;;;;;;;5036962;28;20206;-67
2022/06/16 03:18:15;;;;;;;5.60;2.30;;;;;;;;;;5039399;28;20299;-67
2022/06/16 03:20:42;;;;;;;3.10;2.40;;;;;;;;;;5043484;28;20193;-67
2022/06/16 03:23:10;;;;;;;4.20;2.60;;;;;;;;;;5046602;28;20592;-67
2022/06/16 03:25:38;;;;;;;2.50;2.30;;;;;;;;;;5045579;28;20203;-67
2022/06/16 03:28:05;;;;;;;3.07;2.40;;;;;;;;;;5042228;28;20241;-67
2022/06/16 03:30:33;;;;;;;2.70;2.50;;;;;;;;;;5046558;28;20202;-67
2022/06/16 03:33:01;;;;;;;3.37;2.57;;;;;;;;;;5046400;28;20268;-67
2022/06/16 03:35:29;;;;;;;3.73;2.50;;;;;;;;;;5045605;28;20555;-67
2022/06/16 03:37:57;;;;;;;4.53;2.63;;;;;;;;;;5043932;28;20230;-67
2022/06/16 03:40:24;;;;;;;5.13;2.73;;;;;;;;;;5046280;28;20198;-67
2022/06/16 03:42:51;;;;;;;2.60;2.17;;;;;;;;;;5045935;28;20213;-67
2022/06/16 03:45:18;;;;;;;4.53;2.63;;;;;;;;;;5046302;28;20627;-67
2022/06/16 03:47:46;;;;;;;3.63;2.53;;;;;;;;;;5042985;28;20282;-67
2022/06/16 03:50:14;;;;;;;2.70;2.37;;;;;;;;;;5041178;28;20206;-67
2022/06/16 03:52:41;;;;;;;4.20;2.40;;;;;;;;;;5046027;28;20194;-67
2022/06/16 03:55:09;;;;;;;3.33;2.37;;;;;;;;;;5046804;28;20198;-66
2022/06/16 03:57:36;;;;;;;4.23;2.90;;;;;;;;;;5047167;28;20207;-67
2022/06/16 04:00:06;;;;;;;4.67;2.73;;;;;;;;;;5043900;28;20205;-66
2022/06/16 04:02:33;;;;;;;2.77;2.30;;;;;;;;;;5044041;28;20228;-70
2022/06/16 04:05:01;;;;;;;5.07;2.47;;;;;;;;;;5044880;28;20198;-69
2022/06/16 04:07:30;;;;;;;4.83;2.73;;;;;;;;;;5047216;28;20778;-67
2022/06/16 04:09:57;;;;;;;3.80;2.37;;;;;;;;;;5049122;28;20206;-67
2022/06/16 04:12:27;;;;;;;3.07;2.50;;;;;;;;;;5045024;28;20988;-69
2022/06/16 04:14:58;;;;;;;4.67;2.70;;;;;;;;;;5042148;28;20241;-68
2022/06/16 04:17:48;;;;;;;4.27;3.07;;;;;;;;;;5045796;28;20637;-67
2022/06/16 04:20:23;;;;;;;5.17;2.80;;;;;;;;;;5008495;28;20199;-68
2022/06/16 04:22:51;;;;;;;3.90;2.90;;;;;;;;;;5027547;28;20535;-68
2022/06/16 04:25:22;;;;;;;2.83;2.57;;;;;;;;;;5041369;28;20190;-67
2022/06/16 04:27:54;;;;;;;4.77;2.67;;;;;;;;;;5019607;28;20257;-67
2022/06/16 04:30:22;;;;;;;4.93;2.60;;;;;;;;;;5044892;28;20197;-69
2022/06/16 04:32:51;;;;;;;5.00;2.70;;;;;;;;;;5034253;28;20635;-69
2022/06/16 04:35:20;;;;;;;4.10;2.60;;;;;;;;;;5022497;28;20187;-67
2022/06/16 04:37:49;;;;;;;5.17;2.30;;;;;;;;;;5041347;28;20240;-67
2022/06/16 04:40:23;;;;;;;3.27;2.73;;;;;;;;;;5050107;28;20876;-69
2022/06/16 04:42:55;;;;;;;3.83;2.40;;;;;;;;;;5049777;28;20198;-68
2022/06/16 04:45:25;;;;;;;4.37;2.50;;;;;;;;;;5050446;28;20202;-67
2022/06/16 04:47:57;;;;;;;2.87;2.30;;;;;;;;;;5039649;28;20804;-67
2022/06/16 04:50:27;;;;;;;2.83;2.47;;;;;;;;;;5032253;28;20647;-65
2022/06/16 04:52:59;;;;;;;3.87;2.80;;;;;;;;;;5049964;28;20198;-67
2022/06/16 04:55:30;;;;;;;4.60;2.47;;;;;;;;;;5049498;28;20191;-66
2022/06/16 04:58:03;;;;;;;2.87;2.50;;;;;;;;;;5041047;28;20232;-67
2022/06/16 05:00:38;;;;;;;3.93;2.40;;;;;;;;;;5032551;28;20256;-66
2022/06/16 05:03:26;;;;;;;3.07;2.50;;;;;;;;;;5022461;28;20222;-66
2022/06/16 05:05:56;;;;;;;3.10;2.50;;;;;;;;;;5047675;28;20186;-67
2022/06/16 05:08:26;;;;;;;4.43;2.80;;;;;;;;;;5042757;28;20224;-67
2022/06/16 05:10:53;;;;;;;2.80;2.50;;;;;;;;;;5048227;28;20206;-69
2022/06/16 05:13:20;;;;;;;17.63;7.20;;;;;;;;;;5048653;28;20801;-68
2022/06/16 05:15:47;;;;;;;69.80;22.90;;;;;;;;;;5045528;28;20245;-68
2022/06/16 05:18:15;;;;;;;48.60;14.83;;;;;;;;;;5045210;28;20541;-68
2022/06/16 05:20:42;;;;;;;35.47;12.53;;;;;;;;;;5048781;28;20648;-66
2022/06/16 05:23:14;;;;;;;32.03;11.97;;;;;;;;;;5048730;28;20646;-66
2022/06/16 05:25:46;;;;;;;28.27;10.03;;;;;;;;;;5039478;28;20205;-66
2022/06/16 05:28:16;;;;;;;22.27;8.63;;;;;;;;;;5037456;28;20225;-66
2022/06/16 05:30:45;;;;;;;21.47;8.03;;;;;;;;;;5051112;28;20845;-65
2022/06/16 05:33:26;;;;;;;17.13;6.60;;;;;;;;;;5031501;28;20777;-65
2022/06/16 05:35:58;;;;;;;12.17;5.30;;;;;;;;;;5044708;28;20195;-66
2022/06/16 05:38:25;;;;;;;14.33;5.77;;;;;;;;;;5043248;28;20242;-66
2022/06/16 05:41:13;;;;;;;9.13;4.67;;;;;;;;;;5042843;28;20217;-66
2022/06/16 05:43:41;;;;;;;10.07;5.17;;;;;;;;;;5047404;28;20194;-65
2022/06/16 05:46:14;;;;;;;9.60;4.43;;;;;;;;;;5044417;28;20655;-66
2022/06/16 05:48:42;;;;;;;8.07;4.20;;;;;;;;;;5046354;28;20233;-67
2022/06/16 05:51:10;;;;;;;7.20;3.87;;;;;;;;;;5046148;28;20210;-67
2022/06/16 05:53:38;;;;;;;5.67;3.10;;;;;;;;;;5044638;28;20202;-66
2022/06/16 05:56:13;;;;;;;3.33;2.90;;;;;;;;;;5045587;28;20186;-68
2022/06/16 05:58:43;;;;;;;4.13;3.17;;;;;;;;;;5045906;28;20197;-69
2022/06/16 06:01:13;;;;;;;6.20;3.00;;;;;;;;;;5032217;28;20202;-69
2022/06/16 06:03:45;;;;;;;5.50;2.90;;;;;;;;;;5041090;28;20210;-68
2022/06/16 06:06:17;;;;;;;4.93;2.70;;;;;;;;;;5043091;28;20213;-68
2022/06/16 06:17:14;;;;;;;3.93;2.33;;;;;;;;;;5040343;28;20202;-67
2022/06/16 06:19:41;;;;;;;3.73;2.97;;;;;;;;;;5029812;28;20206;-66
2022/06/16 06:22:17;;;;;;;6.33;2.87;;;;;;;;;;5044611;28;20199;-66
2022/06/16 06:24:46;;;;;;;5.23;2.50;;;;;;;;;;5049361;28;20248;-66
2022/06/16 06:27:15;;;;;;;3.27;2.30;;;;;;;;;;5044751;28;20203;-65
2022/06/16 06:29:43;;;;;;;3.57;2.30;;;;;;;;;;5047228;28;20268;-65
2022/06/16 06:32:12;;;;;;;7.20;2.83;;;;;;;;;;5026291;28;20554;-65
2022/06/16 06:34:40;;;;;;;4.03;2.80;;;;;;;;;;5047039;28;20198;-65
2022/06/16 06:37:08;;;;;;;5.60;2.50;;;;;;;;;;5045453;28;20230;-66
2022/06/16 06:39:35;;;;;;;15.93;4.60;;;;;;;;;;5045098;28;20707;-67
2022/06/16 06:42:03;;;;;;;8.17;3.80;;;;;;;;;;5044883;28;20198;-67
2022/06/16 06:44:31;;;;;;;12.47;4.70;;;;;;;;;;5027024;28;20198;-68
2022/06/16 06:46:59;;;;;;;16.23;4.87;;;;;;;;;;5044675;28;20201;-66
2022/06/16 06:49:26;;;;;;;15.03;4.43;;;;;;;;;;5042368;28;20818;-61
2022/06/16 06:51:53;;;;;;;11.83;4.37;;;;;;;;;;5041094;28;20217;-65
2022/06/16 06:54:21;;;;;;;12.67;4.20;;;;;;;;;;5044632;28;20197;-65
2022/06/16 06:56:49;;;;;;;12.90;4.20;;;;;;;;;;5049930;28;20205;-65
2022/06/16 06:59:18;;;;;;;10.27;4.17;;;;;;;;;;5047394;28;20235;-65
2022/06/16 07:01:49;;;;;;;7.87;3.80;;;;;;;;;;5049065;28;20203;-64
2022/06/16 07:04:19;;;;;;;8.70;3.57;;;25.00;46.00;;;;;;5042577;28;20198;-64
2022/06/16 07:06:52;;;;;;;12.40;3.83;;;25.00;45.70;;;;;;5019431;28;20202;-64
2022/06/16 07:09:19;;;;;;;8.17;3.20;;;25.10;45.70;;;;;;5046325;28;20202;-65
2022/06/16 07:11:46;;;;;;;7.27;3.10;;;;;;;;;;5046135;28;20198;-64
2022/06/16 07:14:13;;;;;;;7.53;3.13;;;25.30;46.00;;;;;;5040379;28;20286;-65
2022/06/16 07:16:41;;;;;;;6.07;2.93;;;;;;;;;;5045313;28;20616;-65
2022/06/16 07:19:15;;;;;;;6.70;2.93;;;25.40;45.80;;;;;;5044873;28;20372;-64
2022/06/16 07:21:43;;;;;;;6.17;2.40;;;25.50;45.90;;;;;;5046742;28;20220;-64
2022/06/16 07:24:13;;;;;;;5.50;2.63;;;25.60;45.90;;;;;;5042717;28;20820;-64
2022/06/16 07:26:46;;;;;;;6.03;2.93;;;25.60;45.80;;;;;;5044149;28;20218;-64
2022/06/16 07:29:17;;;;;;;6.60;2.63;;;;;;;;;;5028856;28;20224;-65
2022/06/16 07:31:48;;;;;;;4.90;2.73;;;;;;;;;;5040572;28;20205;-62
2022/06/16 07:34:21;;;;;;;4.17;2.40;;;;;;;;;;5045579;28;20190;-64
2022/06/16 07:36:52;;;;;;;3.87;2.43;;;;;;;;;;5036442;28;20627;-62
2022/06/16 07:39:26;;;;;;;4.97;2.33;;;;;;;;;;5021298;28;20211;-63
2022/06/16 07:41:53;;;;;;;4.23;2.60;;;;;;;;;;5023559;28;20199;-65
2022/06/16 07:44:20;;;;;;;3.63;2.07;;;;;;;;;;5024650;28;20179;-65
2022/06/16 07:46:48;;;;;;;4.40;1.90;;;;;;;;;;5027351;28;20195;-66
2022/06/16 07:49:22;;;;;;;4.77;2.30;;;;;;;;;;5025070;28;20355;-66
2022/06/16 07:51:51;;;;;;;4.33;2.27;;;;;;;;;;5023983;28;20206;-65
2022/06/16 07:54:18;;;;;;;4.60;2.23;;;;;;;;;;5024150;28;20199;-66
2022/06/16 07:57:05;;;;;;;2.63;1.93;;;26.30;45.50;;;;;;5011297;28;20753;-67
2022/06/16 07:59:32;;;;;;;2.80;1.90;;;26.40;45.50;;;;;;5007009;28;20215;-65
2022/06/16 08:02:05;;;;;;;3.70;1.77;;;26.40;45.40;;;;;;5024329;28;20203;-65
2022/06/16 08:04:34;;;;;;;2.77;1.70;;;26.50;45.30;;;;;;5024287;28;20277;-65
2022/06/16 08:07:03;;;;;;;4.40;2.03;;;26.50;44.40;;;;;;5020035;28;20685;-65
2022/06/16 08:09:33;;;;;;;3.13;2.20;;;26.40;44.00;;;;;;5018860;28;20208;-64
2022/06/16 08:12:12;;;;;;;2.83;1.97;;;26.40;44.60;;;;;;5006580;28;20191;-64
2022/06/16 08:14:49;;;;;;;2.37;1.80;;;26.30;44.60;;;;;;5027863;28;20209;-64
2022/06/16 08:17:27;;;;;;;3.17;2.07;;;26.20;44.60;;;;;;5025895;28;20237;-63
2022/06/16 08:19:55;;;;;;;2.13;1.60;;;26.20;44.80;;;;;;5026037;28;20203;-64
2022/06/16 08:22:23;;;;;;;2.03;1.83;;;26.20;44.90;;;;;;5027570;28;20198;-61
2022/06/16 08:24:50;;;;;;;3.57;1.70;;;26.10;44.90;;;;;;5026970;28;20657;-61
2022/06/16 08:27:20;;;;;;;2.13;1.70;;;26.10;45.00;;;;;;5009782;28;20310;-64
2022/06/16 08:29:53;;;;;;;2.07;1.60;;;26.10;45.10;;;;;;5028583;28;20385;-63
2022/06/16 08:32:25;;;;;;;2.03;1.60;;;26.00;45.10;;;;;;5028868;28;20659;-61
2022/06/16 08:35:00;;;;;;;2.07;1.47;;;26.00;45.20;;;;;;5029930;28;20183;-61
2022/06/16 08:37:34;;;;;;;3.10;1.50;;;26.00;45.30;;;;;;5045578;28;20229;-64
2022/06/16 08:40:04;;;;;;;1.67;1.50;;;25.90;44.80;;;;;;5044528;28;20225;-63
2022/06/16 08:42:41;;;;;;;2.37;1.57;;;25.90;45.30;;;;;;5048316;28;20195;-63
2022/06/16 08:45:34;;;;;;;2.30;1.80;;;25.90;45.40;;;;;;5045985;28;20190;-64
2022/06/16 08:48:45;;;;;;;2.17;1.40;;;25.90;45.50;;;;;;5031089;28;20660;-64
2022/06/16 08:51:42;;;;;;;2.40;1.60;;;25.90;45.40;;;;;;5050954;28;20646;-61
2022/06/16 08:54:56;;;;;;;1.97;1.60;;;25.90;45.50;;;;;;5035031;28;20790;-61
2022/06/16 08:57:44;;;;;;;2.83;1.90;;;25.80;45.50;;;;;;5000065;28;20703;-64
2022/06/16 09:00:31;;;;;;;2.60;1.50;;;25.80;46.10;;;;;;5045534;28;20214;-64
2022/06/16 09:03:13;;;;;;;2.27;1.60;;;25.80;45.60;;;;;;5030248;28;20214;-64
2022/06/16 09:06:29;;;;;;;2.00;1.47;;;25.80;45.60;;;;;;5029176;28;20207;-64
2022/06/16 09:12:59;;;;;;;2.13;1.90;;;25.80;45.60;;;;;;5046384;28;20190;-62
2022/06/16 09:16:03;;;;;;;2.37;1.80;;;25.80;45.60;;;;;;5045782;28;20210;-64
2022/06/16 09:19:10;;;;;;;1.40;1.30;;;25.80;45.70;;;;;;5045363;28;20263;-64
2022/06/16 09:22:14;;;;;;;1.87;1.70;;;25.80;45.80;;;;;;5049479;28;20199;-61
2022/06/16 09:25:33;;;;;;;2.63;1.53;;;25.80;45.80;;;;;;5028904;28;20585;-61
2022/06/16 09:28:49;;;;;;;2.10;1.70;;;25.80;45.70;;;;;;4962567;28;20205;-63
2022/06/16 09:31:27;;;;;;;1.40;1.30;;;25.80;45.70;;;;;;4915205;29;20252;-63
2022/06/16 09:34:08;;;;;;;2.00;1.63;;;25.80;45.80;;;;;;4930952;28;20202;-63
2022/06/16 09:36:45;;;;;;;1.50;1.30;;;25.80;45.80;;;;;;4941425;28;20249;-64
2022/06/16 09:39:34;;;;;;;1.80;1.57;;;25.80;45.80;;;;;;4927724;29;20245;-65
2022/06/16 09:42:33;;;;;;;2.07;1.40;;;25.80;45.80;;;;;;4941377;28;20564;-63
2022/06/16 09:45:30;;;;;;;2.40;1.50;;;25.80;45.90;;;;;;4924370;29;20683;-63
2022/06/16 09:48:17;;;;;;;1.30;1.20;;;25.80;45.80;;;;;;4942601;29;20316;-61
2022/06/16 09:50:56;;;;;;;2.57;1.17;;;25.80;45.90;;;;;;4940541;28;20229;-61
2022/06/16 09:53:58;;;;;;;1.73;1.13;;;25.80;45.90;;;;;;4946296;28;20201;-61
2022/06/16 09:56:40;;;;;;;1.60;1.50;;;25.80;45.90;;;;;;5017351;28;20214;-63
2022/06/16 09:59:18;;;;;;;1.50;1.40;;;25.80;46.00;;;;;;5048920;28;20208;-62
2022/06/16 10:01:55;;;;;;;1.53;1.40;;;25.80;46.00;;;;;;5031126;28;20190;-62
2022/06/16 10:04:30;;;;;;;1.90;1.33;;;25.80;46.00;;;;;;5040914;28;20198;-63
2022/06/16 10:07:28;;;;;;;2.20;1.60;;;25.80;46.00;;;;;;5050812;28;20197;-64
2022/06/16 10:10:24;;;;;;;2.17;1.23;;;25.80;46.00;;;;;;5038036;28;20231;-63
2022/06/16 10:13:02;;;;;;;1.40;1.30;;;25.80;46.00;;;;;;5046159;28;20190;-61
2022/06/16 10:15:47;;;;;;;1.67;1.40;;;25.80;46.10;;;;;;5042268;28;20290;-61
2022/06/16 10:18:17;;;;;;;1.70;1.30;;;25.80;46.10;;;;;;5043969;28;20225;-61
2022/06/16 10:20:45;;;;;;;1.30;1.20;;;25.80;46.10;;;;;;5046936;28;20516;-60
2022/06/16 10:23:34;;;;;;;1.83;1.47;;;25.80;46.20;;;;;;5030305;28;20213;-60
2022/06/16 10:26:07;;;;;;;1.37;1.27;;;25.80;46.20;;;;;;5033095;28;20213;-61
2022/06/16 10:28:50;;;;;;;1.37;1.03;;;25.90;46.20;;;;;;5011613;28;20191;-61
2022/06/16 10:31:43;;;;;;;1.83;1.37;;;25.80;46.20;;;;;;5030620;28;20198;-61
2022/06/16 10:34:28;;;;;;;2.43;1.40;;;25.90;46.30;;;;;;5042712;28;20622;-61
2022/06/16 10:37:23;;;;;;;1.87;1.40;;;25.90;46.20;;;;;;5045940;28;20234;-64
2022/06/16 10:40:00;;;;;;;2.23;1.33;;;25.90;46.20;;;;;;5025089;28;20202;-64
2022/06/16 10:42:45;;;;;;;2.37;1.50;;;25.90;46.30;;;;;;5028566;28;20226;-61
2022/06/16 10:45:34;;;;;;;1.67;1.30;;;25.90;46.20;;;;;;5045724;28;20240;-61
2022/06/16 10:48:14;;;;;;;1.30;1.20;;;25.90;46.30;;;;;;5044727;28;20218;-61
2022/06/16 10:51:01;;;;;;;1.90;1.23;;;25.90;46.40;;;;;;5044641;28;20233;-63
2022/06/16 10:53:35;;;;;;;1.80;1.70;;;26.00;46.40;;;;;;5014238;28;20268;-64
2022/06/16 10:56:18;;;;;;;1.97;1.23;;;25.90;46.40;;;;;;5030812;28;20206;-61
2022/06/16 10:59:04;;;;;;;1.40;1.30;;;26.00;46.40;;;;;;5075615;27;21070;-62
2022/06/16 11:02:18;;;;;;;1.73;1.50;;;26.00;46.40;;;;;;5063855;28;20186;-62
2022/06/16 11:05:14;;;;;;;1.53;1.23;;;26.00;46.40;;;;;;5038270;28;20215;-62
2022/06/16 11:07:45;;;;;;;1.87;1.50;;;26.00;46.40;;;;;;5043270;28;20202;-62
2022/06/16 11:10:36;;;;;;;1.60;1.40;;;26.00;45.90;;;;;;5037812;28;20497;-62
2022/06/16 11:13:14;;;;;;;1.53;1.20;;;26.00;46.50;;;;;;5039689;28;20256;-62
2022/06/16 11:15:52;;;;;;;2.07;1.57;;;26.10;46.00;;;;;;5038892;28;20202;-62
2022/06/16 11:18:23;;;;;;;3.37;1.70;;;;;;;;;;5041884;28;20210;-62
2022/06/16 11:20:56;;;;;;;1.57;1.37;;;;;;;;;;5040593;28;20217;-62
2022/06/16 11:23:34;;;;;;;1.80;1.53;;;;;;;;;;5037303;28;20194;-62
2022/06/16 11:26:16;;;;;;;2.90;1.40;;;;;;;;;;5034922;28;20182;-64
2022/06/16 11:28:54;;;;;;;2.17;1.70;;;;;;;;;;5043239;28;20202;-65
2022/06/16 11:31:41;;;;;;;1.70;1.50;;;;;;;;;;5041791;28;20557;-65
2022/06/16 11:34:28;;;;;;;2.23;1.80;;;;;;;;;;5036732;28;20249;-65
2022/06/16 11:37:27;;;;;;;1.70;1.60;;;;;;;;;;5042591;28;20206;-62
2022/06/16 11:40:09;;;;;;;1.60;1.50;;;;;;;;;;5015803;28;20290;-62
2022/06/16 11:42:57;;;;;;;3.20;1.50;;;;;;;;;;5034716;28;20698;-62
2022/06/16 11:45:33;;;;;;;2.47;1.60;;;;;;;;;;5043080;28;20290;-62
2022/06/16 11:48:22;;;;;;;1.37;1.20;;;;;;;;;;5034307;28;20191;-62
2022/06/16 11:51:08;;;;;;;2.27;1.50;;;;;;;;;;5036432;28;20214;-62
2022/06/16 11:53:47;;;;;;;1.63;1.40;;;;;;;;;;5041477;28;20202;-61
2022/06/16 11:56:23;;;;;;;2.17;1.60;;;;;;;;;;5040177;28;20187;-64
2022/06/16 11:59:23;;;;;;;2.70;1.90;;;;;;;;;;5036125;28;20328;-64
2022/06/16 12:01:57;;;;;;;2.63;1.60;;;;;;;;;;5028426;28;20534;-61
2022/06/16 12:04:43;;;;;;;2.33;1.70;;;;;;;;;;5033878;28;20202;-61
2022/06/16 12:07:20;;;;;;;1.70;1.47;;;;;;;;;;5024747;28;20206;-64
2022/06/16 12:10:10;;;;;;;2.57;1.60;;;;;;;;;;5031319;28;20249;-64
2022/06/16 12:12:41;;;;;;;1.70;1.60;;;;;;;;;;5036619;28;20906;-64
2022/06/16 12:15:10;;;;;;;2.17;1.60;;;;;;;;;;5021002;28;20795;-64
2022/06/16 12:17:40;;;;;;;1.83;1.60;;;;;;;;;;5024082;28;20234;-65
2022/06/16 12:20:23;;;;;;;1.60;1.50;;;;;;;;;;5026038;28;20195;-62
2022/06/16 12:23:16;;;;;;;2.23;1.50;;;;;;;;;;5024570;28;20276;-62
2022/06/16 12:26:05;;;;;;;1.60;1.50;;;;;;;;;;5023718;28;20196;-62
2022/06/16 12:28:38;;;;;;;3.30;1.40;;;;;;;;;;5025275;28;20476;-62
2022/06/16 12:31:12;;;;;;;1.90;1.60;;;;;;;;;;5012377;28;20222;-62
2022/06/16 12:34:00;;;;;;;1.87;1.60;;;;;;;;;;5025757;28;20237;-62
2022/06/16 12:36:38;;;;;;;1.93;1.70;;;;;;;;;;5025557;28;20199;-62
2022/06/16 12:39:15;;;;;;;2.03;1.73;;;;;;;;;;5023006;28;20223;-62
2022/06/16 12:42:00;;;;;;;1.40;1.30;;;;;;;;;;5022632;28;20276;-65
2022/06/16 12:44:39;;;;;;;2.33;1.30;;;;;;;;;;5023320;28;20335;-65
2022/06/16 12:47:17;;;;;;;1.60;1.50;;;;;;;;;;5025595;28;20197;-62
2022/06/16 12:49:55;;;;;;;3.23;1.67;;;;;;;;;;5026402;28;20602;-62
2022/06/16 12:52:48;;;;;;;2.37;1.60;;;;;;;;;;5024885;28;20256;-65
2022/06/16 12:55:33;;;;;;;1.77;1.67;;;;;;;;;;5026631;28;20696;-62
2022/06/16 12:58:07;;;;;;;1.53;1.40;;;;;;;;;;5022067;28;20912;-62
2022/06/16 13:00:39;;;;;;;1.70;1.33;;;;;;;;;;5026941;28;20722;-62
2022/06/16 13:03:10;;;;;;;2.00;1.40;;;;;;;;;;5025473;28;20215;-62
2022/06/16 13:05:38;;;;;;;1.73;1.50;;;;;;;;;;5027012;28;20194;-62
2022/06/16 13:08:05;;;;;;;1.97;1.50;;;;;;;;;;5023158;28;20191;-62
2022/06/16 13:10:42;;;;;;;1.63;1.40;;;;;;;;;;5026709;28;20203;-65
2022/06/16 13:13:22;;;;;;;2.03;1.50;;;;;;;;;;5025947;28;20302;-65
2022/06/16 13:16:04;;;;;;;3.03;1.73;;;;;;;;;;5020706;28;20738;-65
2022/06/16 13:18:42;;;;;;;1.70;1.60;;;;;;;;;;5026824;28;20215;-65
2022/06/16 13:21:19;;;;;;;2.23;1.43;;;;;;;;;;5022856;28;20241;-65
2022/06/16 13:24:00;;;;;;;1.87;1.30;;;;;;;;;;5024733;28;20265;-65
2022/06/16 13:26:32;;;;;;;1.87;1.40;;;;;;;;;;5022195;28;20538;-65
2022/06/16 13:29:06;;;;;;;1.77;1.50;;;;;;;;;;5021490;28;20199;-65
2022/06/16 13:31:42;;;;;;;2.03;1.50;;;;;;;;;;5037729;28;20191;-62
2022/06/16 13:34:21;;;;;;;1.93;1.40;;;;;;;;;;5023087;28;20221;-62
2022/06/16 13:36:53;;;;;;;1.40;1.30;;;;;;;;;;5023891;28;20207;-62
2022/06/16 13:39:43;;;;;;;2.83;1.70;;;;;;;;;;5022964;28;20231;-63
2022/06/16 13:42:16;;;;;;;2.10;1.67;;;;;;;;;;5018860;28;20211;-62
2022/06/16 13:45:03;;;;;;;1.90;1.67;;;;;;;;;;5026750;28;20652;-62
2022/06/16 13:47:36;;;;;;;2.40;1.53;;;;;;;;;;5027398;28;20199;-63
2022/06/16 13:50:25;;;;;;;2.13;1.70;;;;;;;;;;5022144;28;20230;-65
2022/06/16 13:53:04;;;;;;;1.67;1.57;;;;;;;;;;5022676;28;20191;-65
2022/06/16 13:55:40;;;;;;;1.60;1.50;;;;;;;;;;5034889;28;20608;-62
2022/06/16 13:58:10;;;;;;;2.17;1.60;;;;;;;;;;5023339;28;20786;-62
2022/06/16 14:01:08;;;;;;;1.50;1.30;;;;;;;;;;5027442;28;20273;-62
2022/06/16 14:03:57;;;;;;;1.90;1.70;;;;;;;;;;5023422;28;20207;-62
2022/06/16 14:06:28;;;;;;;1.37;1.27;;;;;;;;;;5023363;28;20261;-62
2022/06/16 14:09:00;;;;;;;1.83;1.53;;;;;;;;;;5027314;28;20280;-62
2022/06/16 14:11:34;;;;;;;1.80;1.70;;;;;;;;;;5027153;28;20246;-64
2022/06/16 14:14:09;;;;;;;2.23;1.50;;;;;;;;;;5020269;28;20264;-65
2022/06/16 14:17:06;;;;;;;2.30;1.50;;;;;;;;;;5025529;28;20381;-62
2022/06/16 14:19:44;;;;;;;2.60;1.30;;;;;;;;;;5017332;28;20743;-62
2022/06/16 14:22:19;;;;;;;1.70;1.43;;;;;;;;;;5038466;28;20672;-65
2022/06/16 14:25:14;;;;;;;2.03;1.37;;;;;;;;;;5026560;28;20737;-65
2022/06/16 14:27:57;;;;;;;3.20;1.60;;;;;;;;;;5021880;28;20218;-62
2022/06/16 14:30:34;;;;;;;3.23;1.53;;;;;;;;;;5022310;28;20203;-62
2022/06/16 14:33:13;;;;;;;1.40;1.30;;;;;;;;;;5005182;28;20210;-62
2022/06/16 14:35:55;;;;;;;2.20;1.57;;;;;;;;;;5024576;28;20203;-65
2022/06/16 14:38:26;;;;;;;1.80;1.23;;;;;;;;;;5024365;28;20289;-65
2022/06/16 14:40:55;;;;;;;2.33;1.60;;;;;;;;;;5025688;28;20203;-62
2022/06/16 14:43:30;;;;;;;1.87;1.70;;;;;;;;;;5025679;28;20721;-62
2022/06/16 14:45:58;;;;;;;1.93;1.40;;;;;;;;;;5024019;28;20191;-65
2022/06/16 14:48:32;;;;;;;1.30;1.20;;;;;;;;;;5026737;28;20199;-65
2022/06/16 14:51:09;;;;;;;1.40;1.30;;;;;;;;;;5022421;28;20209;-62
2022/06/16 14:53:41;;;;;;;1.83;1.40;;;;;;;;;;5009585;28;20198;-62
2022/06/16 14:56:21;;;;;;;1.90;1.63;;;;;;;;;;5021176;28;20191;-62
2022/06/16 14:58:57;;;;;;;2.33;1.60;;;;;;;;;;5022232;28;20246;-62
2022/06/16 15:01:34;;;;;;;1.50;1.40;;;;;;;;;;5020760;28;20304;-62
2022/06/16 15:04:11;;;;;;;1.77;1.60;;;;;;;;;;5013193;28;20215;-62
2022/06/16 15:06:49;;;;;;;2.30;1.50;;;;;;;;;;5024691;28;20233;-62
2022/06/16 15:09:21;;;;;;;1.60;1.50;;;;;;;;;;5015633;28;20672;-62
2022/06/16 15:11:53;;;;;;;1.77;1.60;;;;;;;;;;5018464;28;20687;-65
2022/06/16 15:14:24;;;;;;;1.60;1.50;;;;;;;;;;5014629;28;20850;-65